Portada
METAR-TAF:

METAR-TAF

Aeropuertos :

Aeropuerto Internacional Bonriki

Tarawa, Kiribati

latitud: 01-21N, longitud: 172-55E, altitud: 2 m

Observación

El informe se hizo hace 36 minutos, a las 12:00 UTC
Viento 9 kt del este-sureste
Temperatura 29°C
Humedad 79%
Presión 1009 hPa
Visibilidad 10 km o más
Escasas nubes a una altura de 1700 ft, Cumulonimbus.
Nubes dispersas a una altura de 2000 ft
Cielo nuboso a una altura de 30000 ft
chaparrones de lluvia

METAR: NGTA 151200Z 12009KT 9999 -SHRA FEW017CB SCT020 BKN300 29/25 Q1009

Hora: 02:36 (12:36 UTC)

Pronóstico

El informe se hizo hace 1 hora y 11 minutos, a las 11:25 UTC
Pronóstico válido del 15 a las 12 UTC al 16 a las 12 UTC
Viento 8 kt del sureste
Visibilidad 10 km o más
Nubes dispersas a una altura de 1800 ft
Nubes dispersas a una altura de 10000 ft

TAF: NGTA 151125Z 1512/1612 13008KT 9999 SCT018 SCT100

Observaciones y pronósticos meteorológicos de más de 4000 aeropuertos (mensajes METAR y TAF).

Los puntos amarillos y rojos representan las estaciones disponibles.

Ponga el ratón en el punto deseado para ver el nombre de la estación.

Haga clic para ver las observaciones y los pronósticos meteorológicos.

Para cambiar el mapa : haga clic en los botones verdes con una cruz de color negro para hacer un zoom, en el botón verde con un guión para alejar o en las flechas verdes para mapas adyacentes.


METAR-TAF: